createdAt,value
2022-09-16T00:00:08.743Z,995.7299805
2022-09-16T00:01:12.027Z,995.7116699
2022-09-16T00:02:12.338Z,995.7564697
2022-09-16T00:03:16.149Z,995.7116699
2022-09-16T00:04:13.414Z,995.7059326
2022-09-16T00:05:16.216Z,995.663269
2022-09-16T00:06:10.675Z,995.6815796
2022-09-16T00:07:14.046Z,995.7162476
2022-09-16T00:08:16.163Z,995.6367188
2022-09-16T00:09:14.544Z,995.6044312
2022-09-16T00:10:17.391Z,995.6621704
2022-09-16T00:11:14.190Z,995.6296997
2022-09-16T00:12:18.295Z,995.6213989
2022-09-16T00:14:22.051Z,995.6953125
2022-09-16T00:15:21.459Z,995.6791992
2022-09-16T00:16:20.695Z,995.6447144
2022-09-16T00:17:22.136Z,995.6630249
2022-09-16T00:18:49.342Z,995.6607666
2022-09-16T00:19:28.632Z,995.631897
2022-09-16T00:20:32.528Z,995.5664673
2022-09-16T00:21:33.512Z,995.6726074
2022-09-16T00:22:31.624Z,995.6621704
2022-09-16T00:24:32.684Z,995.7540894
2022-09-16T00:25:33.876Z,995.7645264
2022-09-16T00:26:39.840Z,995.7910156
2022-09-16T00:27:43.953Z,995.7299805
2022-09-16T00:28:41.387Z,995.6526489
2022-09-16T00:29:41.936Z,995.7081299
2022-09-16T00:30:37.266Z,995.7185669
2022-09-16T00:31:37.972Z,995.6734619
2022-09-16T00:33:47.005Z,995.7321777
2022-09-16T00:34:30.160Z,995.7379761
2022-09-16T00:35:31.916Z,995.6213989
2022-09-16T00:36:31.923Z,995.7357788
2022-09-16T00:37:27.284Z,995.7196655
2022-09-16T00:38:29.400Z,995.7540894
2022-09-16T00:39:28.838Z,995.7379761
2022-09-16T00:40:24.241Z,995.7669678
2022-09-16T00:41:24.158Z,995.758728
2022-09-16T00:42:21.655Z,995.7265015
2022-09-16T00:44:20.354Z,995.6920166
2022-09-16T00:45:23.555Z,995.7103271
2022-09-16T00:46:19.064Z,995.6967163
2022-09-16T00:47:19.574Z,995.7045898
2022-09-16T00:49:23.923Z,995.7232666
2022-09-16T00:50:18.316Z,995.7128296
2022-09-16T00:51:19.202Z,995.7310791
2022-09-16T00:52:21.300Z,995.7576294
2022-09-16T00:53:15.446Z,995.65979
2022-09-16T00:54:15.240Z,995.6333008
2022-09-16T00:55:11.029Z,995.6862793
2022-09-16T00:56:12.628Z,995.7335815
2022-09-16T00:57:11.729Z,995.7092285
2022-09-16T00:59:21.907Z,995.6690674
2022-09-16T01:00:20.363Z,995.8303833
2022-09-16T01:01:24.579Z,995.824707
2022-09-16T01:02:22.775Z,995.8063965
2022-09-16T01:04:23.374Z,995.7877197
2022-09-16T01:05:15.891Z,995.8225098
2022-09-16T01:06:18.475Z,995.7855225
2022-09-16T01:07:11.552Z,995.7429199
2022-09-16T01:08:11.783Z,995.7486572
2022-09-16T01:09:06.673Z,995.7751465
2022-09-16T01:10:07.384Z,995.7855225
2022-09-16T01:11:07.460Z,995.7243652
2022-09-16T01:12:08.075Z,995.7798462
2022-09-16T01:13:15.075Z,995.7590332
2022-09-16T01:14:11.192Z,995.7346802
2022-09-16T01:15:58.206Z,995.7461548
2022-09-16T01:16:40.916Z,995.7576294
2022-09-16T01:18:47.091Z,995.7265015
2022-09-16T01:19:48.686Z,995.6967163
2022-09-16T01:20:47.855Z,995.7254028
2022-09-16T01:21:55.505Z,995.701355
2022-09-16T01:23:53.366Z,995.6978149
2022-09-16T01:24:56.066Z,995.7002563
2022-09-16T01:25:52.393Z,995.7106323
2022-09-16T01:26:54.107Z,995.7106323
2022-09-16T01:27:50.232Z,995.7902222
2022-09-16T01:28:52.497Z,995.8085327
2022-09-16T01:29:55.197Z,995.7393799
2022-09-16T01:30:51.571Z,995.7773438
2022-09-16T01:31:58.889Z,995.8200073
2022-09-16T01:32:57.013Z,995.8522949
2022-09-16T01:34:03.976Z,995.8120117
2022-09-16T01:35:00.723Z,995.8673706
2022-09-16T01:36:06.927Z,995.8328857
2022-09-16T01:37:11.438Z,995.8328857
2022-09-16T01:38:06.771Z,995.7694702
2022-09-16T01:39:05.102Z,995.7715454
2022-09-16T01:40:07.007Z,995.7637329
2022-09-16T01:41:06.161Z,995.7210693
2022-09-16T01:42:07.903Z,995.704834
2022-09-16T01:44:14.528Z,995.7579956
2022-09-16T01:45:14.353Z,995.736084
2022-09-16T01:46:16.020Z,995.7302856
2022-09-16T01:47:26.286Z,995.7084351
2022-09-16T01:49:20.864Z,995.7221069
2022-09-16T01:50:21.071Z,995.7059326
2022-09-16T01:51:21.440Z,995.6898193
2022-09-16T01:52:31.707Z,995.6310425
2022-09-16T01:55:05.873Z,995.6748657
2022-09-16T01:57:16.481Z,995.7015381
2022-09-16T01:57:58.387Z,995.6768799
2022-09-16T01:58:55.631Z,995.7321777
2022-09-16T01:59:53.740Z,995.6702881
2022-09-16T02:00:48.352Z,995.6657715
2022-09-16T02:01:51.881Z,995.6590576
2022-09-16T02:03:50.585Z,995.6248169
2022-09-16T02:04:49.768Z,995.6690063
2022-09-16T02:05:48.051Z,995.6679688
2022-09-16T02:06:46.011Z,995.5765381
2022-09-16T02:08:40.113Z,995.6526489
2022-09-16T02:09:44.587Z,995.7450562
2022-09-16T02:10:37.040Z,995.6781006
2022-09-16T02:11:38.805Z,995.6781006
2022-09-16T02:12:40.567Z,995.7335815
2022-09-16T02:14:45.679Z,995.6343994
2022-09-16T02:15:44.247Z,995.6182251
2022-09-16T02:16:48.137Z,995.6228027
2022-09-16T02:18:46.341Z,995.6887207
2022-09-16T02:19:47.402Z,995.6195068
2022-09-16T02:20:49.670Z,995.5687256
2022-09-16T02:21:45.628Z,995.6113892
2022-09-16T02:22:49.737Z,995.6887207
2022-09-16T02:24:34.209Z,995.6608887
2022-09-16T02:25:36.570Z,995.5837402
2022-09-16T02:26:30.866Z,995.6286011
2022-09-16T02:27:30.226Z,995.6102905
2022-09-16T02:29:26.509Z,995.6239014
2022-09-16T02:30:24.370Z,995.6608887
2022-09-16T02:31:18.699Z,995.6102905
2022-09-16T02:32:16.218Z,995.6390381
2022-09-16T02:33:10.535Z,995.5859375
2022-09-16T02:34:08.789Z,995.6149902
2022-09-16T02:35:05.133Z,995.6518555
2022-09-16T02:35:58.602Z,995.6540527
2022-09-16T02:37:04.154Z,995.6378784
2022-09-16T02:38:00.027Z,995.6436157
2022-09-16T02:40:01.642Z,995.6217041
2022-09-16T02:40:44.178Z,995.593811
2022-09-16T02:41:45.706Z,995.5848389
2022-09-16T02:42:58.497Z,995.5717163
2022-09-16T02:43:57.627Z,995.5800171
2022-09-16T02:44:58.827Z,995.5789185
2022-09-16T02:45:57.994Z,995.6123657
2022-09-16T02:46:58.652Z,995.6031494
2022-09-16T02:49:04.797Z,995.4923706
2022-09-16T02:49:59.185Z,995.5848389
2022-09-16T02:51:07.324Z,995.5547485
2022-09-16T02:52:05.292Z,995.6472168
2022-09-16T02:54:03.098Z,995.578064
2022-09-16T02:55:02.150Z,995.5296631
2022-09-16T02:55:56.502Z,995.6009521
2022-09-16T02:56:52.708Z,995.5078125
2022-09-16T02:58:48.305Z,995.5525513
2022-09-16T02:59:51.943Z,995.4328613
2022-09-16T03:00:49.078Z,995.4349976
2022-09-16T03:01:52.360Z,995.4801636
2022-09-16T03:02:47.091Z,995.4962769
2022-09-16T03:03:46.861Z,995.4962769
2022-09-16T03:04:44.029Z,995.5250244
2022-09-16T03:05:45.278Z,995.4743652
2022-09-16T03:06:43.505Z,995.4500122
2022-09-16T03:07:42.146Z,995.4074097
2022-09-16T03:09:36.044Z,995.3912354
2022-09-16T03:10:31.216Z,995.3833618
2022-09-16T03:11:34.398Z,995.3325195
2022-09-16T03:12:26.501Z,995.4041138
2022-09-16T03:14:21.297Z,995.3776855
2022-09-16T03:15:20.096Z,995.3615112
2022-09-16T03:16:19.420Z,995.3453369
2022-09-16T03:17:21.733Z,995.3636475
2022-09-16T03:19:39.398Z,995.3371582
2022-09-16T03:20:20.454Z,995.3879395
2022-09-16T03:21:17.877Z,995.4385986
2022-09-16T03:22:17.753Z,995.3855591
2022-09-16T03:24:17.366Z,995.3718872
2022-09-16T03:25:14.604Z,995.3740845
2022-09-16T03:26:17.691Z,995.3234863
2022-09-16T03:27:13.087Z,995.3256226
2022-09-16T03:28:14.682Z,995.4212646
2022-09-16T03:29:10.007Z,995.3890381
2022-09-16T03:30:10.999Z,995.3915405
2022-09-16T03:31:07.369Z,995.4018555
2022-09-16T03:32:07.644Z,995.454834
2022-09-16T03:34:07.334Z,995.4098511
2022-09-16T03:35:02.996Z,995.3858032
2022-09-16T03:36:04.918Z,995.3591919
2022-09-16T03:37:02.948Z,995.3613892
2022-09-16T03:39:00.527Z,995.3373413
2022-09-16T03:40:03.733Z,995.331543
2022-09-16T03:40:59.055Z,995.3498535
2022-09-16T03:42:01.375Z,995.2888794
2022-09-16T03:43:04.681Z,995.3050537
2022-09-16T03:44:03.043Z,995.3258667
2022-09-16T03:44:59.183Z,995.3234253
2022-09-16T03:45:57.288Z,995.3050537
2022-09-16T03:46:57.066Z,995.2600098
2022-09-16T03:47:52.326Z,995.3477173
2022-09-16T03:48:54.440Z,995.3234253
2022-09-16T03:49:56.318Z,995.352356
2022-09-16T03:50:52.880Z,995.3809204
2022-09-16T03:51:53.349Z,995.2957764
2022-09-16T03:53:53.871Z,995.3362427
2022-09-16T03:55:42.990Z,995.276123
2022-09-16T03:56:29.535Z,995.2474976
2022-09-16T03:57:30.429Z,995.3062744
2022-09-16T03:58:34.867Z,995.3141479
2022-09-16T03:59:32.420Z,995.204834
2022-09-16T04:00:36.452Z,995.3050537
2022-09-16T04:01:33.126Z,995.2463379
2022-09-16T04:02:35.044Z,995.2567139
2022-09-16T04:03:33.380Z,995.2484131
2022-09-16T04:04:33.473Z,995.303894
2022-09-16T04:05:33.577Z,995.218689
2022-09-16T04:06:35.672Z,995.2738037
2022-09-16T04:07:33.657Z,995.3326416
2022-09-16T04:09:30.758Z,995.3085938
2022-09-16T04:10:31.323Z,995.2290649
2022-09-16T04:11:30.587Z,995.2576294
2022-09-16T04:12:33.744Z,995.1967773
2022-09-16T04:14:33.289Z,995.1828003
2022-09-16T04:15:36.694Z,995.2382813
2022-09-16T04:16:34.819Z,995.1795044
2022-09-16T04:17:33.829Z,995.2324829
2022-09-16T04:19:33.656Z,995.2185059
2022-09-16T04:20:37.133Z,995.2818604
2022-09-16T04:21:31.747Z,995.2023315
2022-09-16T04:22:34.710Z,995.2449951
2022-09-16T04:24:35.832Z,995.2346802
2022-09-16T04:25:37.220Z,995.1920166
2022-09-16T04:26:40.171Z,995.2288818
2022-09-16T04:27:34.450Z,995.1654663
2022-09-16T04:28:36.569Z,995.2196655
2022-09-16T04:29:39.821Z,995.2072144
2022-09-16T04:30:38.382Z,995.2072144
2022-09-16T04:31:54.484Z,995.2498169
2022-09-16T04:32:35.902Z,995.194397
2022-09-16T04:34:34.303Z,995.1896973
2022-09-16T04:35:29.518Z,995.163208
2022-09-16T04:36:30.772Z,995.1044312
2022-09-16T04:37:27.276Z,995.2207642
2022-09-16T04:38:28.129Z,995.2369385
2022-09-16T04:39:23.587Z,995.1885986
2022-09-16T04:40:27.681Z,995.2415771
2022-09-16T04:41:22.800Z,995.2254639
2022-09-16T04:42:28.337Z,995.1828003
2022-09-16T04:44:25.686Z,995.1541138
2022-09-16T04:45:22.754Z,995.1989136
2022-09-16T04:46:22.602Z,995.19104
2022-09-16T04:47:18.001Z,995.1748657
2022-09-16T04:49:23.311Z,995.1645508
2022-09-16T04:50:27.009Z,995.1748657
2022-09-16T04:51:30.328Z,995.1505737
2022-09-16T04:52:27.932Z,995.166748
2022-09-16T04:53:27.222Z,995.2647705
2022-09-16T04:54:25.931Z,995.1795044
2022-09-16T04:55:26.781Z,995.2324829
2022-09-16T04:56:32.874Z,995.2507935
2022-09-16T04:57:35.817Z,995.2346802
2022-09-16T04:58:30.440Z,995.2668457
2022-09-16T04:59:29.103Z,995.2324829
2022-09-16T05:00:28.997Z,995.293457
2022-09-16T05:01:25.767Z,995.3120117
2022-09-16T05:02:34.348Z,995.293457
2022-09-16T05:04:30.679Z,995.2796631
2022-09-16T05:06:19.722Z,995.1828003
2022-09-16T05:06:20.804Z,995.1828003
2022-09-16T05:06:55.935Z,995.2323608
2022-09-16T05:09:02.801Z,995.2370605
2022-09-16T05:09:58.199Z,995.276123
2022-09-16T05:10:57.694Z,995.2520142
2022-09-16T05:11:53.352Z,995.3258667
2022-09-16T05:13:48.573Z,995.2301636
2022-09-16T05:14:54.594Z,995.2323608
2022-09-16T05:15:51.297Z,995.2612305
2022-09-16T05:16:52.868Z,995.2104492
2022-09-16T05:18:50.764Z,995.2750244
2022-09-16T05:19:46.774Z,995.3258667
2022-09-16T05:20:47.004Z,995.2463379
2022-09-16T05:21:42.198Z,995.2220459
2022-09-16T05:22:42.154Z,995.2670288
2022-09-16T05:23:37.488Z,995.2140503
2022-09-16T05:24:44.491Z,995.208252
2022-09-16T05:25:41.453Z,995.2025146
2022-09-16T05:26:41.834Z,995.2207642
2022-09-16T05:27:37.021Z,995.2738037
2022-09-16T05:29:36.947Z,995.2659302
2022-09-16T05:30:35.788Z,995.2207642
2022-09-16T05:31:30.273Z,995.1598511
2022-09-16T05:32:30.241Z,995.1782227
2022-09-16T05:34:22.267Z,995.2312622
2022-09-16T05:35:22.997Z,995.2072144
2022-09-16T05:36:17.289Z,995.2970581
2022-09-16T05:37:27.051Z,995.2357788
2022-09-16T05:39:24.867Z,995.2970581
2022-09-16T05:40:16.416Z,995.2254639
2022-09-16T05:41:19.264Z,995.2762451
2022-09-16T05:42:11.880Z,995.2576294
2022-09-16T05:44:14.172Z,995.3164673
2022-09-16T05:45:10.665Z,995.2982178
2022-09-16T05:46:57.623Z,995.3441162
2022-09-16T05:47:40.916Z,995.3556519
2022-09-16T05:49:47.305Z,995.2843628
2022-09-16T05:50:48.242Z,995.3050537
2022-09-16T05:51:46.293Z,995.2670288
2022-09-16T05:52:44.014Z,995.3118896
2022-09-16T05:53:46.311Z,995.303894
2022-09-16T05:54:46.971Z,995.3269043
2022-09-16T05:55:43.457Z,995.3718872
2022-09-16T05:56:44.870Z,995.3740845
2022-09-16T05:57:42.036Z,995.2945557
2022-09-16T05:58:44.110Z,995.3475952
2022-09-16T05:59:46.355Z,995.2519531
2022-09-16T06:00:42.801Z,995.2866211
2022-09-16T06:01:44.637Z,995.2784424
2022-09-16T06:02:42.020Z,995.1967773
2022-09-16T06:04:41.552Z,995.3027954
2022-09-16T06:05:45.798Z,995.3557739
2022-09-16T06:06:40.605Z,995.3292847
2022-09-16T06:07:42.269Z,995.3085938
2022-09-16T06:09:41.550Z,995.2924194
2022-09-16T06:10:39.519Z,995.2498169
2022-09-16T06:11:39.544Z,995.3475952
2022-09-16T06:12:41.661Z,995.2842407
2022-09-16T06:14:39.958Z,995.2762451
2022-09-16T06:15:38.751Z,995.3027954
2022-09-16T06:16:42.776Z,995.2762451
2022-09-16T06:17:37.623Z,995.2312622
2022-09-16T06:18:44.954Z,995.2820435
2022-09-16T06:19:38.622Z,995.3164673
2022-09-16T06:20:38.931Z,995.3615723
2022-09-16T06:22:42.493Z,995.3269653
2022-09-16T06:24:21.135Z,995.3314209
2022-09-16T06:25:21.914Z,995.3660889
2022-09-16T06:26:16.372Z,995.3499756
2022-09-16T06:27:16.150Z,995.3707886
2022-09-16T06:28:11.337Z,995.3624878
2022-09-16T06:29:11.139Z,995.3833008
2022-09-16T06:30:06.439Z,995.4143677
2022-09-16T06:31:06.482Z,995.5204468
2022-09-16T06:32:00.911Z,995.4351807
2022-09-16T06:33:02.741Z,995.4329834
2022-09-16T06:33:57.972Z,995.3982544
2022-09-16T06:34:58.120Z,995.3291626
2022-09-16T06:35:53.375Z,995.4272461
2022-09-16T06:36:52.782Z,995.4190674
2022-09-16T06:37:48.101Z,995.3822021
2022-09-16T06:38:48.470Z,995.4168701
2022-09-16T06:39:48.640Z,995.3581543
2022-09-16T06:40:41.043Z,995.3742065
2022-09-16T06:41:47.934Z,995.3581543
2022-09-16T06:42:42.187Z,995.3800049
2022-09-16T06:44:44.837Z,995.3556519
2022-09-16T06:45:44.621Z,995.331543
2022-09-16T06:46:40.004Z,995.3498535
2022-09-16T06:47:41.950Z,995.331543
2022-09-16T06:48:38.451Z,995.3477173
2022-09-16T06:49:41.237Z,995.3845825
2022-09-16T06:50:33.896Z,995.3129883
2022-09-16T06:51:31.000Z,995.3660278
2022-09-16T06:52:30.554Z,995.3498535
2022-09-16T06:54:24.281Z,995.3764038
2022-09-16T06:55:28.602Z,995.423584
2022-09-16T06:56:31.400Z,995.3867188
2022-09-16T06:57:23.497Z,995.4157715
2022-09-16T06:59:20.133Z,995.3845825
2022-09-16T07:01:04.361Z,995.3568115
2022-09-16T07:01:48.413Z,995.3984375
2022-09-16T07:02:46.746Z,995.3222046
2022-09-16T07:03:45.793Z,995.3382568
2022-09-16T07:04:41.059Z,995.3406982
2022-09-16T07:05:39.638Z,995.4120483
2022-09-16T07:07:08.134Z,995.3532715
2022-09-16T07:07:34.804Z,995.3833618
2022-09-16T07:09:27.501Z,995.382019
2022-09-16T07:10:27.057Z,995.392334
2022-09-16T07:11:22.652Z,995.4880981
2022-09-16T07:12:23.456Z,995.4536133
2022-09-16T07:14:18.356Z,995.4984131
2022-09-16T07:15:13.682Z,995.4743652
2022-09-16T07:16:14.503Z,995.5088501
2022-09-16T07:17:09.662Z,995.4823608
2022-09-16T07:18:11.042Z,995.4640503
2022-09-16T07:19:04.669Z,995.4454956
2022-09-16T07:20:05.653Z,995.5170288
2022-09-16T07:21:00.431Z,995.4719238
2022-09-16T07:22:00.341Z,995.4823608
2022-09-16T07:22:59.440Z,995.4984131
2022-09-16T07:23:54.570Z,995.5596924
2022-09-16T07:24:56.235Z,995.557251
2022-09-16T07:25:51.188Z,995.5733643
2022-09-16T07:26:53.197Z,995.5769653
2022-09-16T07:27:45.644Z,995.5134888
2022-09-16T07:29:44.487Z,995.5640869
2022-09-16T07:30:37.190Z,995.5457764
2022-09-16T07:31:39.203Z,995.6311035
2022-09-16T07:33:23.271Z,995.6411133
2022-09-16T07:34:04.432Z,995.5095215
2022-09-16T07:35:00.318Z,995.5477905
2022-09-16T07:35:59.995Z,995.5213013
2022-09-16T07:36:55.261Z,995.5664673
2022-09-16T07:38:50.239Z,995.6745605
2022-09-16T07:39:50.960Z,995.5973511
2022-09-16T07:40:46.121Z,995.6953125
2022-09-16T07:41:47.609Z,995.5465698
2022-09-16T07:42:40.047Z,995.4934082
2022-09-16T07:43:44.245Z,995.6239014
2022-09-16T07:44:38.753Z,995.6052856
2022-09-16T07:45:36.293Z,995.5708008
2022-09-16T07:46:38.811Z,995.6583862
2022-09-16T07:47:31.129Z,995.5443115
2022-09-16T07:48:35.079Z,995.5765381
2022-09-16T07:49:30.401Z,995.6066284
2022-09-16T07:50:22.865Z,995.6206055
2022-09-16T07:51:25.734Z,995.6134644
2022-09-16T07:52:18.185Z,995.6652832
2022-09-16T07:54:13.709Z,995.6325684
2022-09-16T07:55:16.288Z,995.6303711
2022-09-16T07:56:09.022Z,995.6730347
2022-09-16T07:57:11.288Z,995.5643921
2022-09-16T07:58:03.656Z,995.6174927
2022-09-16T07:59:03.575Z,995.6231079
2022-09-16T07:59:58.856Z,995.6682739
2022-09-16T08:01:04.005Z,995.6553955
2022-09-16T08:01:05.167Z,995.6553955
2022-09-16T08:01:57.602Z,995.6854858
2022-09-16T08:03:55.925Z,995.7151489
2022-09-16T08:04:51.066Z,995.6724854
2022-09-16T08:05:50.580Z,995.7360229
2022-09-16T08:06:45.878Z,995.781189
2022-09-16T08:07:43.246Z,995.6402588
2022-09-16T08:08:42.881Z,995.7015381
2022-09-16T08:10:07.744Z,995.7603149
2022-09-16T08:10:48.165Z,995.7185669
2022-09-16T08:11:47.271Z,995.706665
2022-09-16T08:12:46.641Z,995.6914063
2022-09-16T08:13:43.196Z,995.6972046
2022-09-16T08:14:45.201Z,995.7489014
2022-09-16T08:15:42.131Z,995.6837769
2022-09-16T08:16:43.466Z,995.626709
2022-09-16T08:17:39.909Z,995.6542358
2022-09-16T08:19:38.417Z,995.7229614
2022-09-16T08:20:43.154Z,995.7373657
2022-09-16T08:21:36.831Z,995.7254639
2022-09-16T08:22:36.649Z,995.7254639
2022-09-16T08:23:38.213Z,995.7658691
2022-09-16T08:24:35.575Z,995.7828369
2022-09-16T08:25:37.720Z,995.7971802
2022-09-16T08:26:35.141Z,995.7424927
2022-09-16T08:27:36.266Z,995.7608643
2022-09-16T08:28:40.162Z,995.7683105
2022-09-16T08:28:51.063Z,995.7683105
2022-09-16T08:29:04.670Z,995.7683105
2022-09-16T08:29:34.775Z,995.7102051
2022-09-16T08:30:31.354Z,995.7271118
2022-09-16T08:31:34.184Z,995.802002
2022-09-16T08:32:30.632Z,995.7938232
2022-09-16T08:33:32.091Z,995.7432251
2022-09-16T08:34:29.430Z,995.7615356
2022-09-16T08:35:31.067Z,995.8076782
2022-09-16T08:36:27.182Z,995.8398438
2022-09-16T08:37:29.927Z,995.8155518
2022-09-16T08:38:24.121Z,995.7832642
2022-09-16T08:39:26.750Z,995.7859497
2022-09-16T08:41:20.368Z,995.7768555
2022-09-16T08:42:15.630Z,995.869751
2022-09-16T08:44:14.509Z,995.8632813
2022-09-16T08:45:10.247Z,995.8947754
2022-09-16T08:46:13.622Z,995.8439331
2022-09-16T08:47:07.189Z,995.9026489
2022-09-16T08:48:10.461Z,995.9165649
2022-09-16T08:49:04.155Z,995.9382935
2022-09-16T08:50:43.445Z,995.8953247
2022-09-16T08:51:42.639Z,995.9473267
2022-09-16T08:52:39.934Z,995.9177856
2022-09-16T08:55:19.085Z,995.87146
2022-09-16T08:57:30.365Z,995.9213257
2022-09-16T08:59:05.514Z,995.8648682
2022-09-16T09:00:04.263Z,995.9146118
2022-09-16T09:00:57.974Z,995.9210205
2022-09-16T09:01:57.257Z,995.9302979
2022-09-16T09:02:50.821Z,995.9050293
2022-09-16T09:03:48.888Z,995.9171753
2022-09-16T09:04:42.043Z,995.8231201
2022-09-16T09:05:41.549Z,995.8884277
2022-09-16T09:06:36.782Z,995.9193115
2022-09-16T09:07:36.980Z,995.9743652
2022-09-16T09:09:26.602Z,995.9840698
2022-09-16T09:10:20.763Z,995.946228
2022-09-16T09:11:15.714Z,995.932373
2022-09-16T09:12:16.862Z,995.9349976
2022-09-16T09:13:08.638Z,995.9615479
2022-09-16T09:14:06.186Z,995.9750977
2022-09-16T09:15:01.051Z,995.9728394
2022-09-16T09:15:58.442Z,995.911377
2022-09-16T09:16:55.307Z,995.9589844
2022-09-16T09:17:48.650Z,995.9695435
2022-09-16T09:19:39.837Z,995.9978027
2022-09-16T09:20:37.789Z,995.9656372
2022-09-16T09:21:30.809Z,995.9784546
2022-09-16T09:22:27.714Z,995.9382935
2022-09-16T09:24:18.935Z,995.9801636
2022-09-16T09:25:19.380Z,995.9824219
2022-09-16T09:26:10.545Z,996.0010986
2022-09-16T09:27:11.226Z,995.9767456
2022-09-16T09:28:02.287Z,995.9662476
2022-09-16T09:29:00.153Z,995.9689331
2022-09-16T09:29:53.527Z,995.9606323
2022-09-16T09:30:51.251Z,995.9205322
2022-09-16T09:31:44.732Z,995.960144
2022-09-16T09:32:49.424Z,996.050293
2022-09-16T09:34:24.373Z,996.013855
2022-09-16T09:35:25.683Z,995.946167
2022-09-16T09:36:18.059Z,995.913269
2022-09-16T09:37:19.976Z,995.9252319
2022-09-16T09:38:12.598Z,995.9660645
2022-09-16T09:39:51.607Z,995.8595581
2022-09-16T09:42:04.182Z,995.9338989
2022-09-16T09:42:45.407Z,995.8629761
2022-09-16T09:44:44.512Z,995.8356323
2022-09-16T09:45:46.118Z,995.7437744
2022-09-16T09:46:42.440Z,995.805481
2022-09-16T09:47:41.075Z,995.7176514
2022-09-16T09:48:42.267Z,995.7659302
2022-09-16T09:49:38.595Z,995.7182617
2022-09-16T09:50:38.819Z,995.6623535
2022-09-16T09:51:35.263Z,995.6356812
2022-09-16T09:52:36.470Z,995.7211914
2022-09-16T09:54:31.338Z,995.7033081
2022-09-16T09:55:31.553Z,995.692627
2022-09-16T09:56:26.920Z,995.737793
2022-09-16T09:57:26.651Z,995.7106323
2022-09-16T09:58:21.993Z,995.6916504
2022-09-16T09:59:19.457Z,995.7416992
2022-09-16T10:00:19.402Z,995.7653809
2022-09-16T10:01:14.369Z,995.762207
2022-09-16T10:02:12.048Z,995.7056885
2022-09-16T10:03:14.824Z,995.7662354
2022-09-16T10:04:10.202Z,995.7712402
2022-09-16T10:05:07.799Z,995.7761841
2022-09-16T10:06:07.567Z,995.6746826
2022-09-16T10:08:58.005Z,995.7700195
2022-09-16T10:09:55.924Z,995.7515869
2022-09-16T10:11:22.790Z,995.6884155
2022-09-16T10:13:06.447Z,995.6351318
2022-09-16T10:14:42.401Z,995.7693481
2022-09-16T10:15:41.957Z,995.694519
2022-09-16T10:16:35.924Z,995.7287598
2022-09-16T10:17:34.650Z,995.7677612
2022-09-16T10:18:31.974Z,995.7800293
2022-09-16T10:19:30.894Z,995.7793579
2022-09-16T10:20:26.116Z,995.8908081
2022-09-16T10:21:26.051Z,995.8103027
2022-09-16T10:22:20.261Z,995.7804565
2022-09-16T10:23:22.902Z,995.8573608
2022-09-16T10:24:20.267Z,995.7453003
2022-09-16T10:25:11.857Z,995.7532959
2022-09-16T10:26:13.404Z,995.7902832
2022-09-16T10:27:06.987Z,995.7902832
2022-09-16T10:28:05.254Z,995.7453003
2022-09-16T10:29:00.580Z,995.7081909
2022-09-16T10:29:55.958Z,995.7000122
2022-09-16T10:30:55.995Z,995.7348633
2022-09-16T10:31:50.666Z,995.7000122
2022-09-16T10:32:49.105Z,995.7026367
2022-09-16T10:33:44.523Z,995.7026367
2022-09-16T10:34:48.484Z,995.7154541
2022-09-16T10:35:42.728Z,995.7235718
2022-09-16T10:36:39.876Z,995.7446899
2022-09-16T10:37:35.465Z,995.7253418
2022-09-16T10:38:34.008Z,995.7357788
2022-09-16T10:39:33.869Z,995.6342773
2022-09-16T10:40:26.293Z,995.6425171
2022-09-16T10:41:27.537Z,995.6021118
2022-09-16T10:42:20.922Z,995.607666
2022-09-16T10:43:18.895Z,995.6083374
2022-09-16T10:44:17.186Z,995.6671753
2022-09-16T10:45:50.455Z,995.6500244
2022-09-16T10:46:46.246Z,995.6591187
2022-09-16T10:47:46.828Z,995.5526733
2022-09-16T10:49:23.718Z,995.6884155
2022-09-16T10:50:03.724Z,995.5898438
2022-09-16T10:51:01.904Z,995.6723633
2022-09-16T10:52:00.713Z,995.6634521
2022-09-16T10:52:56.272Z,995.6710815
2022-09-16T10:54:50.860Z,995.6060181
2022-09-16T10:55:49.934Z,995.6454468
2022-09-16T10:56:42.473Z,995.6342773
2022-09-16T10:57:42.253Z,995.6819458
2022-09-16T10:58:37.992Z,995.6070557
2022-09-16T10:59:37.653Z,995.6119385
2022-09-16T11:00:32.202Z,995.5613403
2022-09-16T11:01:32.687Z,995.6887207
2022-09-16T11:02:26.579Z,995.5767212
2022-09-16T11:03:28.580Z,995.6056519
2022-09-16T11:04:20.933Z,995.5895386
2022-09-16T11:05:25.540Z,995.6509399
2022-09-16T11:06:18.312Z,995.4936523
2022-09-16T11:07:13.386Z,995.5767212
2022-09-16T11:09:08.417Z,995.4969482
2022-09-16T11:10:10.976Z,995.5025024
2022-09-16T11:11:04.913Z,995.510498
2022-09-16T11:12:05.381Z,995.4976807
2022-09-16T11:13:03.482Z,995.4949951
2022-09-16T11:13:56.121Z,995.5515747
2022-09-16T11:14:59.026Z,995.6182251
2022-09-16T11:15:51.587Z,995.5360718
2022-09-16T11:16:51.411Z,995.5438843
2022-09-16T11:17:46.828Z,995.541626
2022-09-16T11:18:50.702Z,995.4963379
2022-09-16T11:18:53.030Z,995.4963379
2022-09-16T11:19:42.243Z,995.4407959
2022-09-16T11:20:45.993Z,995.4036865
2022-09-16T11:21:41.021Z,995.515686
2022-09-16T11:22:35.793Z,995.4171753
2022-09-16T11:23:38.021Z,995.515686
2022-09-16T11:24:30.851Z,995.5584106
2022-09-16T11:25:33.050Z,995.4863892
2022-09-16T11:26:56.804Z,995.5130615
2022-09-16T11:27:37.071Z,995.5639648
2022-09-16T11:28:36.376Z,995.5775146
2022-09-16T11:29:37.693Z,995.5984497
2022-09-16T11:30:33.127Z,995.6010742
2022-09-16T11:31:32.521Z,995.5689087
2022-09-16T11:32:28.460Z,995.5682983
2022-09-16T11:33:28.096Z,995.5438843
2022-09-16T11:34:24.127Z,995.5811157
2022-09-16T11:35:23.759Z,995.6819458
2022-09-16T11:36:20.248Z,995.6845093
2022-09-16T11:37:22.237Z,995.7134399
2022-09-16T11:39:14.410Z,995.7692261
2022-09-16T11:40:09.494Z,995.7265625
2022-09-16T11:41:08.963Z,995.8323364
2022-09-16T11:42:04.689Z,995.8562622
2022-09-16T11:43:04.645Z,995.774231
2022-09-16T11:44:00.023Z,995.8434448
2022-09-16T11:44:59.632Z,995.8135986
2022-09-16T11:45:55.870Z,995.7862549
2022-09-16T11:46:57.023Z,995.7806396
2022-09-16T11:47:52.480Z,995.8121948
2022-09-16T11:49:48.983Z,995.9073486
2022-09-16T11:50:52.309Z,995.8566895
2022-09-16T11:51:44.948Z,995.8566895
2022-09-16T11:52:44.295Z,995.8695068
2022-09-16T11:53:45.542Z,995.9147949
2022-09-16T11:54:40.173Z,995.7784424
2022-09-16T11:55:40.102Z,995.7810669